Terminal Aerodrome Forecast
Issued by NWS

Home | Current Version | Previous Version | Text Only | Print | Product List | Glossary On
Versions: 1 2 3 4 5 6 7 8 9 10 11 12 13 14 15 16 17 18 19 20 21 22 23 24 25 26 27 28 29 30 31 32 33 34 35 36 37 38 39 40 41 42 43 44 45 46 47 48 49 50
000
FTUS45 KGJT 241931 AAA
TAFASE
TAF AMD
KASE 241931Z 2420/2518 19003KT 3SM HZ BKN020
      TEMPO 2420/2422 2SM -SHSN BR OVC025
     FM242200 31005KT 3SM -SHSN OVC025
     FM250000 30003KT 2SM -SN BR OVC015
     FM251000 VRB03KT 3SM -SHSN OVC020
     FM251500 29004KT 2SM -SHSN OVC035=

USA.gov is the U.S. government's official web portal to all federal, state and local government web resources and services.